This is the latest recevied weather packets stored in our database for station/object KB4MOX. If no packets are shown the sender has not sent any weather packets the latest 10 day(s).
| Time | Temp. | Humidity | Pressure | Rain* | Wind** | Luminosity | Snow |
|---|---|---|---|---|---|---|---|
| 1788297931 | 35° C | 45% | 1017.3 hPa | 0 mm | - | 109 W/m² | - |
| 1788297629 | 35° C | 45% | 1017.3 hPa | 0 mm | - | 368 W/m² | - |
| 1788297323 | 35° C | 44% | 1017.2 hPa | 0 mm | - | 365 W/m² | - |
| 1788297020 | 35° C | 45% | 1017.4 hPa | 0 mm | - | 410 W/m² | - |
| 1788296715 | 35° C | 44% | 1017.3 hPa | 0 mm | - | 377 W/m² | - |
| 1788296411 | 35.56° C | 43% | 1017.3 hPa | 0 mm | - | 117 W/m² | - |
| 1788296106 | 36.11° C | 43% | 1017.2 hPa | 0 mm | - | 451 W/m² | - |
| 1788295800 | 36.11° C | 43% | 1017.5 hPa | 0 mm | - | 470 W/m² | - |
| 1788295497 | 36.11° C | 42% | 1017.6 hPa | 0 mm | - | 483 W/m² | - |
| 1788295196 | 36.11° C | 41% | 1017.4 hPa | 0 mm | - | 497 W/m² | - |
| 1788294891 | 36.11° C | 40% | 1017.7 hPa | 0 mm | - | 520 W/m² | - |
| 1788294586 | 35.56° C | 42% | 1017.5 hPa | 0 mm | - | 538 W/m² | - |
| 1788294281 | 35° C | 43% | 1017.5 hPa | 0 mm | - | 536 W/m² | - |
| 1788293978 | 34.44° C | 44% | 1017.6 hPa | 0 mm | - | 556 W/m² | - |
| 1788293672 | 35° C | 44% | 1017.7 hPa | 0 mm | - | 134 W/m² | - |
| 1788293372 | 35° C | 44% | 1017.7 hPa | 0 mm | - | 541 W/m² | - |
| 1788293067 | 35° C | 45% | 1017.9 hPa | 0 mm | - | 618 W/m² | - |
| 1788292766 | 34.44° C | 46% | 1017.8 hPa | 0 mm | - | 495 W/m² | - |
| 1788292465 | 35° C | 45% | 1017.9 hPa | 0 mm | - | 122 W/m² | - |
| 1788292160 | 36.11° C | 44% | 1018.1 hPa | 0 mm | - | 610 W/m² | - |
| 1788291854 | 36.11° C | 43% | 1017.8 hPa | 0 mm | - | 651 W/m² | - |
| 1788291551 | 35.56° C | 42% | 1017.8 hPa | 0 mm | - | 684 W/m² | - |
| 1788291250 | 35° C | 46% | 1018.2 hPa | 0 mm | - | 697 W/m² | - |
| 1788290950 | 35° C | 44% | 1018.3 hPa | 0 mm | - | 98 W/m² | - |
| 1788290646 | 35° C | 44% | 1018.5 hPa | 0 mm | - | 692 W/m² | - |
* Rain latest hour (hover to see other rain measurements)
** Current wind speed in m/s (hover to see current wind gust speed)